createdAt,value
2023-04-29T00:02:05.625Z,26.00
2023-04-29T00:04:39.554Z,26.00
2023-04-29T00:07:15.466Z,26.00
2023-04-29T00:09:48.673Z,26.00
2023-04-29T00:12:23.201Z,26.00
2023-04-29T00:14:56.413Z,26.00
2023-04-29T00:17:29.836Z,26.00
2023-04-29T00:20:03.284Z,26.00
2023-04-29T00:22:36.506Z,26.00
2023-04-29T00:25:10.755Z,26.00
2023-04-29T00:27:45.310Z,26.00
2023-04-29T00:30:29.197Z,26.00
2023-04-29T00:33:02.606Z,26.00
2023-04-29T00:35:36.222Z,26.00
2023-04-29T00:38:09.453Z,26.00
2023-04-29T00:40:43.693Z,26.00
2023-04-29T00:43:18.289Z,26.00
2023-04-29T00:45:54.412Z,26.00
2023-04-29T00:48:27.789Z,26.00
2023-04-29T00:51:01.339Z,26.00
2023-04-29T00:53:35.230Z,26.00
2023-04-29T00:56:08.848Z,26.00
2023-04-29T00:58:49.830Z,26.00
2023-04-29T01:01:23.695Z,26.00
2023-04-29T01:03:58.468Z,26.00
2023-04-29T01:06:49.645Z,26.00
2023-04-29T01:09:31.671Z,26.10
2023-04-29T01:12:15.349Z,26.10
2023-04-29T01:14:55.408Z,26.10
2023-04-29T01:17:32.683Z,26.10
2023-04-29T01:20:07.751Z,26.00
2023-04-29T01:22:41.000Z,26.10
2023-04-29T01:25:15.771Z,26.10
2023-04-29T01:28:26.949Z,26.10
2023-04-29T01:31:09.063Z,26.10
2023-04-29T01:33:50.113Z,26.10
2023-04-29T01:36:32.822Z,26.10
2023-04-29T01:39:15.931Z,26.10
2023-04-29T01:41:59.647Z,26.10
2023-04-29T01:44:36.622Z,26.10
2023-04-29T01:47:14.510Z,26.00
2023-04-29T01:49:52.911Z,26.10
2023-04-29T01:52:26.335Z,26.10
2023-04-29T01:55:02.489Z,26.10
2023-04-29T01:57:46.297Z,26.10
2023-04-29T02:00:26.450Z,26.00
2023-04-29T02:02:59.762Z,26.10
2023-04-29T02:05:45.786Z,26.10
2023-04-29T02:08:19.530Z,26.00
2023-04-29T02:10:55.044Z,26.10
2023-04-29T02:14:01.605Z,26.00
2023-04-29T02:16:35.506Z,26.10
2023-04-29T02:19:11.666Z,26.00
2023-04-29T02:21:45.853Z,26.00
2023-04-29T02:24:19.082Z,26.10
2023-04-29T02:26:54.496Z,26.10
2023-04-29T02:29:31.107Z,26.10
2023-04-29T02:32:05.332Z,26.00
2023-04-29T02:34:38.923Z,26.10
2023-04-29T02:37:12.691Z,26.00
2023-04-29T02:39:47.084Z,26.10
2023-04-29T02:42:20.343Z,26.00
2023-04-29T02:44:55.058Z,26.10
2023-04-29T02:47:28.311Z,26.00
2023-04-29T02:50:01.574Z,26.10
2023-04-29T02:52:36.165Z,26.10
2023-04-29T02:55:09.589Z,26.00
2023-04-29T02:57:43.358Z,26.10
2023-04-29T03:00:17.786Z,26.00
2023-04-29T03:02:51.191Z,26.00
2023-04-29T03:05:24.701Z,26.00
2023-04-29T03:07:58.065Z,26.00
2023-04-29T03:10:31.429Z,26.00
2023-04-29T03:13:04.663Z,26.00
2023-04-29T03:15:41.907Z,26.00
2023-04-29T03:18:15.364Z,26.00
2023-04-29T03:20:48.569Z,26.10
2023-04-29T03:23:22.511Z,26.10
2023-04-29T03:25:56.816Z,26.10
2023-04-29T03:28:30.625Z,26.00
2023-04-29T03:31:05.670Z,26.00
2023-04-29T03:33:39.122Z,26.00
2023-04-29T03:36:13.349Z,26.10
2023-04-29T03:39:06.108Z,26.10
2023-04-29T03:41:39.436Z,26.00
2023-04-29T03:44:12.855Z,26.00
2023-04-29T03:46:47.642Z,26.10
2023-04-29T03:49:20.844Z,26.10
2023-04-29T03:51:54.089Z,26.00
2023-04-29T03:54:27.955Z,26.00
2023-04-29T03:57:02.363Z,26.00
2023-04-29T03:59:36.081Z,26.00
2023-04-29T04:02:10.807Z,26.00
2023-04-29T04:04:44.543Z,26.10
2023-04-29T04:07:17.819Z,26.10
2023-04-29T04:10:11.653Z,26.10
2023-04-29T04:12:45.665Z,26.10
2023-04-29T04:15:19.220Z,26.00
2023-04-29T04:17:53.870Z,26.00
2023-04-29T04:20:27.211Z,26.10
2023-04-29T04:23:00.634Z,26.10
2023-04-29T04:25:36.898Z,26.10
2023-04-29T04:28:25.360Z,26.00
2023-04-29T04:31:06.406Z,26.10
2023-04-29T04:33:42.561Z,26.00
2023-04-29T04:36:15.984Z,26.10
2023-04-29T04:38:49.878Z,26.00
2023-04-29T04:41:23.095Z,26.00
2023-04-29T04:43:57.369Z,26.10
2023-04-29T04:46:57.825Z,26.10
2023-04-29T04:49:44.925Z,26.10
2023-04-29T04:52:21.409Z,26.00
2023-04-29T04:55:02.199Z,26.10
2023-04-29T04:57:37.310Z,26.00
2023-04-29T05:00:12.048Z,26.00
2023-04-29T05:02:45.416Z,26.00
2023-04-29T05:05:20.262Z,26.00
2023-04-29T05:07:53.520Z,26.00
2023-04-29T05:10:33.924Z,26.00
2023-04-29T05:13:08.247Z,26.00
2023-04-29T05:15:43.050Z,26.00
2023-04-29T05:18:16.590Z,26.00
2023-04-29T05:20:55.397Z,26.00
2023-04-29T05:23:28.990Z,26.00
2023-04-29T05:26:03.090Z,26.00
2023-04-29T05:28:36.472Z,26.00
2023-04-29T05:31:10.032Z,26.00
2023-04-29T05:33:43.694Z,26.00
2023-04-29T05:36:18.313Z,26.00
2023-04-29T05:38:51.679Z,25.90
2023-04-29T05:41:25.233Z,26.00
2023-04-29T05:44:17.854Z,25.90
2023-04-29T05:46:52.736Z,26.00
2023-04-29T05:49:25.989Z,25.90
2023-04-29T05:52:04.090Z,26.00
2023-04-29T05:54:37.560Z,26.00
2023-04-29T05:57:10.845Z,26.00
2023-04-29T05:59:44.577Z,26.00
2023-04-29T06:02:17.790Z,26.00
2023-04-29T06:04:51.568Z,26.00
2023-04-29T06:07:45.527Z,26.00
2023-04-29T06:10:39.051Z,26.00
2023-04-29T06:13:12.322Z,26.00
2023-04-29T06:15:45.929Z,26.00
2023-04-29T06:18:20.925Z,26.00
2023-04-29T06:20:54.160Z,26.00
2023-04-29T06:23:28.687Z,26.00
2023-04-29T06:26:02.185Z,26.00
2023-04-29T06:28:35.519Z,26.00
2023-04-29T06:31:08.896Z,26.00
2023-04-29T06:33:42.379Z,26.00
2023-04-29T06:36:15.610Z,26.00
2023-04-29T06:39:10.678Z,26.00
2023-04-29T06:42:06.646Z,26.00
2023-04-29T06:45:06.879Z,26.10
2023-04-29T06:47:46.652Z,26.10
2023-04-29T06:50:28.394Z,26.10
2023-04-29T06:53:01.677Z,26.10
2023-04-29T06:55:37.334Z,26.10
2023-04-29T06:58:10.645Z,26.10
2023-04-29T07:00:46.478Z,26.10
2023-04-29T07:03:20.149Z,26.10
2023-04-29T07:05:53.432Z,26.10
2023-04-29T07:08:26.882Z,26.10
2023-04-29T07:11:01.514Z,26.10
2023-04-29T07:13:34.892Z,26.00
2023-04-29T07:16:16.879Z,25.90
2023-04-29T07:18:50.367Z,25.90
2023-04-29T07:21:23.750Z,25.90
2023-04-29T07:23:56.979Z,25.90
2023-04-29T07:26:32.027Z,25.90
2023-04-29T07:29:05.284Z,25.90
2023-04-29T07:31:38.649Z,25.80
2023-04-29T07:34:12.279Z,25.80
2023-04-29T07:36:45.516Z,25.80
2023-04-29T07:39:18.792Z,25.80
2023-04-29T07:41:56.446Z,25.80
2023-04-29T07:44:30.496Z,25.80
2023-04-29T07:47:03.951Z,25.80
2023-04-29T07:49:37.470Z,25.90
2023-04-29T07:52:10.918Z,25.90
2023-04-29T07:54:44.204Z,25.90
2023-04-29T07:57:22.628Z,25.90
2023-04-29T07:59:56.301Z,25.90
2023-04-29T08:02:29.644Z,25.90
2023-04-29T08:05:04.145Z,26.00
2023-04-29T08:07:37.977Z,26.00
2023-04-29T08:10:11.516Z,26.00
2023-04-29T08:12:48.556Z,26.00
2023-04-29T08:15:21.767Z,26.10
2023-04-29T08:17:55.060Z,26.10
2023-04-29T08:20:28.794Z,26.10
2023-04-29T08:23:01.992Z,26.10
2023-04-29T08:25:35.270Z,26.10
2023-04-29T08:28:10.142Z,26.10
2023-04-29T08:30:49.375Z,26.00
2023-04-29T08:33:22.954Z,26.00
2023-04-29T08:36:00.462Z,26.00
2023-04-29T08:38:33.730Z,26.00
2023-04-29T08:41:09.323Z,25.90
2023-04-29T08:43:43.988Z,25.90
2023-04-29T08:46:18.113Z,25.90
2023-04-29T08:48:52.370Z,25.80
2023-04-29T08:51:25.786Z,25.80
2023-04-29T08:53:59.135Z,25.80
2023-04-29T08:56:33.442Z,25.80
2023-04-29T08:59:10.663Z,25.80
2023-04-29T09:01:44.797Z,25.80
2023-04-29T09:04:29.074Z,25.80
2023-04-29T09:07:02.966Z,25.80
2023-04-29T09:09:36.738Z,25.80
2023-04-29T09:12:10.301Z,25.80
2023-04-29T09:14:46.358Z,25.80
2023-04-29T09:17:20.866Z,25.80
2023-04-29T09:19:57.054Z,25.70
2023-04-29T09:22:48.743Z,25.70
2023-04-29T09:25:23.200Z,25.70
2023-04-29T09:27:56.897Z,25.60
2023-04-29T09:30:31.559Z,25.60
2023-04-29T09:33:09.610Z,25.50
2023-04-29T09:35:43.153Z,25.50
2023-04-29T09:38:17.749Z,25.50
2023-04-29T09:43:30.628Z,25.50
2023-04-29T09:46:05.305Z,25.50
2023-04-29T09:48:38.906Z,25.50
2023-04-29T09:51:13.231Z,25.50
2023-04-29T09:53:48.167Z,25.50
2023-04-29T09:59:10.586Z,25.50
2023-04-29T10:01:44.365Z,25.50
2023-04-29T10:04:18.031Z,25.50
2023-04-29T10:06:52.648Z,25.50
2023-04-29T10:09:26.204Z,25.50
2023-04-29T10:12:02.639Z,25.50
2023-04-29T10:14:44.545Z,25.60
2023-04-29T10:17:21.760Z,25.60
2023-04-29T10:20:00.723Z,25.70
2023-04-29T10:22:41.468Z,25.70
2023-04-29T10:25:17.082Z,25.70
2023-04-29T10:27:53.442Z,25.70
2023-04-29T10:30:28.735Z,25.80
2023-04-29T10:33:04.428Z,25.80
2023-04-29T10:35:38.619Z,25.80
2023-04-29T10:38:18.994Z,25.80
2023-04-29T10:40:54.216Z,25.80
2023-04-29T10:43:28.168Z,25.80
2023-04-29T10:46:22.272Z,25.90
2023-04-29T10:49:01.478Z,25.90
2023-04-29T10:51:35.824Z,25.80
2023-04-29T10:54:10.861Z,25.90
2023-04-29T10:56:49.282Z,25.90
2023-04-29T10:59:24.009Z,25.90
2023-04-29T11:02:00.576Z,25.90
2023-04-29T11:04:33.922Z,25.90
2023-04-29T11:07:07.161Z,25.90
2023-04-29T11:09:42.031Z,25.90
2023-04-29T11:12:21.882Z,26.00
2023-04-29T11:15:01.877Z,26.00
2023-04-29T11:17:38.913Z,26.00
2023-04-29T11:20:14.948Z,26.00
2023-04-29T11:22:53.392Z,26.10
2023-04-29T11:25:28.468Z,26.10
2023-04-29T11:28:02.443Z,26.20
2023-04-29T11:30:36.762Z,26.20
2023-04-29T11:33:11.728Z,26.30
2023-04-29T11:35:44.982Z,26.30
2023-04-29T11:38:18.263Z,26.40
2023-04-29T11:40:51.836Z,26.40
2023-04-29T11:43:26.241Z,26.50
2023-04-29T11:46:01.491Z,26.50
2023-04-29T11:48:38.097Z,26.60
2023-04-29T11:51:11.635Z,26.60
2023-04-29T11:53:44.977Z,26.60
2023-04-29T11:56:18.287Z,26.60
2023-04-29T11:58:51.511Z,26.60
2023-04-29T12:01:26.413Z,26.60
2023-04-29T12:04:01.227Z,26.70
2023-04-29T12:06:34.660Z,26.70
2023-04-29T12:09:08.686Z,26.70
2023-04-29T12:11:42.120Z,26.70
2023-04-29T12:14:15.743Z,26.70
2023-04-29T12:16:49.720Z,26.70
2023-04-29T12:19:24.901Z,26.70
2023-04-29T12:22:00.924Z,26.70
2023-04-29T12:24:36.403Z,26.70
2023-04-29T12:27:10.865Z,26.70
2023-04-29T12:29:44.125Z,26.70
2023-04-29T12:32:18.888Z,26.70
2023-04-29T12:34:54.123Z,26.70
2023-04-29T12:37:27.597Z,26.70
2023-04-29T12:40:00.854Z,26.70
2023-04-29T12:42:35.144Z,26.70
2023-04-29T12:45:09.139Z,26.70
2023-04-29T12:47:42.528Z,26.70
2023-04-29T12:50:17.303Z,26.70
2023-04-29T12:52:50.657Z,26.70
2023-04-29T12:55:23.965Z,26.80
2023-04-29T12:57:58.053Z,26.90
2023-04-29T13:00:35.020Z,26.80
2023-04-29T13:03:08.615Z,26.90
2023-04-29T13:05:43.510Z,26.90
2023-04-29T13:08:16.796Z,26.90
2023-04-29T13:10:50.043Z,26.90
2023-04-29T13:13:23.254Z,26.90
2023-04-29T13:15:56.816Z,26.90
2023-04-29T13:18:31.401Z,26.90
2023-04-29T13:21:06.263Z,26.90
2023-04-29T13:23:39.500Z,26.90
2023-04-29T13:26:13.668Z,26.90
2023-04-29T13:28:47.130Z,26.90
2023-04-29T13:31:20.363Z,26.90
2023-04-29T13:36:33.378Z,26.80
2023-04-29T13:39:06.828Z,26.90
2023-04-29T13:41:42.247Z,26.90
2023-04-29T13:44:29.664Z,26.90
2023-04-29T13:47:09.467Z,26.90
2023-04-29T13:50:16.881Z,26.90
2023-04-29T13:53:23.176Z,26.90
2023-04-29T13:58:40.467Z,26.90
2023-04-29T14:01:37.711Z,26.90
2023-04-29T14:03:58.359Z,26.80
2023-04-29T14:06:32.331Z,26.80
2023-04-29T14:09:07.046Z,26.80
2023-04-29T14:11:40.221Z,26.80
2023-04-29T14:14:13.459Z,26.80
2023-04-29T14:16:46.890Z,26.80
2023-04-29T14:19:20.095Z,26.80
2023-04-29T14:21:53.549Z,26.80
2023-04-29T14:24:28.236Z,26.80
2023-04-29T14:27:02.138Z,26.80
2023-04-29T14:29:35.397Z,26.70
2023-04-29T14:32:08.834Z,26.70
2023-04-29T14:34:42.511Z,26.70
2023-04-29T14:37:15.592Z,26.70
2023-04-29T14:39:50.140Z,26.60
2023-04-29T14:42:23.520Z,26.60
2023-04-29T14:44:57.002Z,26.60
2023-04-29T14:47:30.276Z,26.60
2023-04-29T14:50:04.184Z,26.60
2023-04-29T14:52:37.467Z,26.50
2023-04-29T14:55:12.308Z,26.50
2023-04-29T14:57:45.455Z,26.50
2023-04-29T15:00:19.255Z,26.40
2023-04-29T15:02:55.660Z,26.40
2023-04-29T15:05:30.527Z,26.40
2023-04-29T15:08:03.970Z,26.40
2023-04-29T15:10:38.629Z,26.30
2023-04-29T15:13:11.817Z,26.30
2023-04-29T15:15:45.373Z,26.20
2023-04-29T15:18:18.608Z,26.20
2023-04-29T15:20:51.884Z,26.20
2023-04-29T15:23:25.829Z,26.10
2023-04-29T15:26:00.610Z,26.10
2023-04-29T15:28:33.857Z,26.10
2023-04-29T15:31:07.050Z,26.10
2023-04-29T15:33:40.391Z,26.00
2023-04-29T15:36:14.447Z,26.00
2023-04-29T15:38:47.648Z,26.00
2023-04-29T15:41:22.196Z,26.00
2023-04-29T15:43:57.522Z,25.90
2023-04-29T15:46:31.503Z,25.90
2023-04-29T15:49:06.011Z,25.90
2023-04-29T15:51:39.316Z,25.80
2023-04-29T15:54:12.598Z,25.80
2023-04-29T15:56:47.245Z,25.80
2023-04-29T15:59:20.438Z,25.80
2023-04-29T16:01:53.717Z,25.70
2023-04-29T16:04:26.913Z,25.70
2023-04-29T16:07:01.542Z,25.70
2023-04-29T16:09:34.906Z,25.70
2023-04-29T16:12:11.728Z,25.70
2023-04-29T16:14:45.002Z,25.70
2023-04-29T16:17:18.414Z,25.70
2023-04-29T16:19:51.713Z,25.70
2023-04-29T16:22:25.398Z,25.60
2023-04-29T16:24:58.569Z,25.70
2023-04-29T16:27:33.233Z,25.70
2023-04-29T16:30:07.729Z,25.60
2023-04-29T16:32:41.739Z,25.70
2023-04-29T16:35:15.163Z,25.60
2023-04-29T16:37:48.419Z,25.60
2023-04-29T16:40:21.626Z,25.60
2023-04-29T16:42:56.986Z,25.60
2023-04-29T16:45:30.435Z,25.60
2023-04-29T16:48:03.709Z,25.60
2023-04-29T16:50:43.318Z,25.60
2023-04-29T16:53:16.843Z,25.60
2023-04-29T16:55:50.644Z,25.60
2023-04-29T16:58:25.250Z,25.60
2023-04-29T17:00:58.610Z,25.60
2023-04-29T17:03:33.214Z,25.60
2023-04-29T17:06:06.725Z,25.60
2023-04-29T17:08:39.984Z,25.60
2023-04-29T17:11:13.283Z,25.60
2023-04-29T17:13:47.857Z,25.60
2023-04-29T17:16:21.053Z,25.60
2023-04-29T17:18:54.403Z,25.60
2023-04-29T17:21:30.615Z,25.70
2023-04-29T17:24:04.002Z,25.70
2023-04-29T17:26:37.270Z,25.70
2023-04-29T17:29:12.620Z,25.70
2023-04-29T17:31:45.986Z,25.70
2023-04-29T17:34:19.795Z,25.60
2023-04-29T17:36:53.034Z,25.70
2023-04-29T17:39:26.251Z,25.70
2023-04-29T17:41:59.536Z,25.70
2023-04-29T17:44:36.384Z,25.70
2023-04-29T17:47:11.051Z,25.70
2023-04-29T17:49:44.383Z,25.70
2023-04-29T17:52:21.419Z,25.70
2023-04-29T17:54:55.428Z,25.70
2023-04-29T17:57:29.634Z,25.70
2023-04-29T18:00:05.246Z,25.70
2023-04-29T18:02:38.730Z,25.70
2023-04-29T18:05:12.053Z,25.70
2023-04-29T18:07:45.320Z,25.70
2023-04-29T18:10:18.625Z,25.80
2023-04-29T18:12:51.912Z,25.80
2023-04-29T18:15:26.556Z,25.80
2023-04-29T18:17:59.874Z,25.80
2023-04-29T18:20:33.133Z,25.80
2023-04-29T18:23:06.573Z,25.90
2023-04-29T18:25:41.090Z,25.90
2023-04-29T18:28:24.954Z,25.90
2023-04-29T18:30:59.997Z,25.90
2023-04-29T18:33:33.457Z,26.00
2023-04-29T18:36:07.348Z,26.00
2023-04-29T18:38:40.526Z,26.00
2023-04-29T18:41:14.553Z,26.00
2023-04-29T18:43:47.770Z,26.10
2023-04-29T18:46:22.469Z,26.10
2023-04-29T18:48:55.699Z,26.10
2023-04-29T18:51:29.249Z,26.10
2023-04-29T18:54:02.543Z,26.10
2023-04-29T18:56:37.124Z,26.10
2023-04-29T18:59:13.169Z,26.10
2023-04-29T19:01:48.098Z,26.20
2023-04-29T19:04:21.874Z,26.20
2023-04-29T19:06:55.106Z,26.20
2023-04-29T19:09:31.526Z,26.20
2023-04-29T19:12:05.241Z,26.20
2023-04-29T19:14:39.041Z,26.20
2023-04-29T19:17:13.649Z,26.20
2023-04-29T19:19:46.864Z,26.20
2023-04-29T19:22:20.203Z,26.20
2023-04-29T19:24:53.390Z,26.20
2023-04-29T19:27:26.611Z,26.20
2023-04-29T19:29:59.827Z,26.30
2023-04-29T19:32:34.465Z,26.30
2023-04-29T19:35:08.397Z,26.30
2023-04-29T19:37:41.780Z,26.30
2023-04-29T19:40:15.142Z,26.30
2023-04-29T19:42:48.341Z,26.30
2023-04-29T19:45:21.771Z,26.30
2023-04-29T19:47:56.360Z,26.30
2023-04-29T19:50:29.586Z,26.30
2023-04-29T19:53:02.785Z,26.30
2023-04-29T19:55:35.948Z,26.30
2023-04-29T19:58:09.180Z,26.40
2023-04-29T20:00:42.390Z,26.40
2023-04-29T20:03:16.997Z,26.40
2023-04-29T20:05:50.341Z,26.40
2023-04-29T20:08:23.559Z,26.40
2023-04-29T20:10:56.718Z,26.40
2023-04-29T20:13:29.929Z,26.40
2023-04-29T20:16:03.135Z,26.40
2023-04-29T20:18:37.993Z,26.40
2023-04-29T20:21:12.107Z,26.40
2023-04-29T20:23:45.691Z,26.40
2023-04-29T20:26:19.824Z,26.30
2023-04-29T20:28:53.477Z,26.40
2023-04-29T20:31:26.730Z,26.40
2023-04-29T20:34:01.344Z,26.40
2023-04-29T20:36:34.624Z,26.40
2023-04-29T20:39:09.335Z,26.40
2023-04-29T20:41:42.715Z,26.40
2023-04-29T20:44:15.926Z,26.40
2023-04-29T20:46:49.266Z,26.40
2023-04-29T20:49:24.826Z,26.40
2023-04-29T20:51:58.787Z,26.40
2023-04-29T20:54:31.943Z,26.40
2023-04-29T20:57:05.743Z,26.40
2023-04-29T20:59:39.077Z,26.40
2023-04-29T21:02:12.354Z,26.40
2023-04-29T21:04:47.159Z,26.40
2023-04-29T21:07:20.401Z,26.40
2023-04-29T21:09:54.217Z,26.40
2023-04-29T21:12:27.653Z,26.40
2023-04-29T21:15:00.842Z,26.30
2023-04-29T21:17:34.106Z,26.30
2023-04-29T21:20:10.179Z,26.40
2023-04-29T21:22:43.615Z,26.30
2023-04-29T21:25:17.137Z,26.30
2023-04-29T21:27:50.361Z,26.30
2023-04-29T21:30:23.621Z,26.30
2023-04-29T21:32:56.859Z,26.30
2023-04-29T21:35:31.564Z,26.30
2023-04-29T21:38:04.757Z,26.30
2023-04-29T21:40:42.574Z,26.30
2023-04-29T21:43:16.788Z,26.30
2023-04-29T21:45:50.174Z,26.20
2023-04-29T21:48:25.174Z,26.20
2023-04-29T21:51:02.026Z,26.20
2023-04-29T21:53:35.331Z,26.20
2023-04-29T21:56:08.954Z,26.20
2023-04-29T21:58:43.412Z,26.20
2023-04-29T22:01:27.646Z,26.20
2023-04-29T22:04:00.993Z,26.20
2023-04-29T22:06:35.812Z,26.20
2023-04-29T22:09:09.954Z,26.20
2023-04-29T22:11:43.928Z,26.20
2023-04-29T22:14:17.096Z,26.20
2023-04-29T22:16:50.327Z,26.10
2023-04-29T22:19:23.611Z,26.10
2023-04-29T22:21:58.321Z,26.10
2023-04-29T22:24:31.635Z,26.10
2023-04-29T22:27:05.005Z,26.10
2023-04-29T22:29:38.215Z,26.10
2023-04-29T22:32:11.451Z,26.10
2023-04-29T22:34:44.793Z,26.10
2023-04-29T22:37:19.414Z,26.10
2023-04-29T22:39:52.775Z,26.10
2023-04-29T22:42:26.259Z,26.10
2023-04-29T22:44:59.458Z,26.10
2023-04-29T22:47:32.696Z,26.10
2023-04-29T22:50:06.831Z,26.10
2023-04-29T22:52:41.849Z,26.10
2023-04-29T22:55:15.057Z,26.10
2023-04-29T22:57:51.826Z,26.10
2023-04-29T23:00:25.019Z,26.10
2023-04-29T23:02:58.258Z,26.10
2023-04-29T23:05:31.511Z,26.10
2023-04-29T23:08:06.652Z,26.10
2023-04-29T23:10:39.908Z,26.10
2023-04-29T23:13:13.324Z,26.10
2023-04-29T23:15:46.934Z,26.10
2023-04-29T23:18:20.121Z,26.10
2023-04-29T23:20:53.354Z,26.10
2023-04-29T23:23:27.924Z,26.10
2023-04-29T23:26:01.146Z,26.10
2023-04-29T23:28:34.330Z,26.10
2023-04-29T23:31:07.600Z,26.10
2023-04-29T23:33:40.881Z,26.10
2023-04-29T23:36:14.124Z,26.10
2023-04-29T23:38:48.638Z,26.10
2023-04-29T23:41:21.803Z,26.10
2023-04-29T23:43:56.407Z,26.10
2023-04-29T23:46:30.079Z,26.10
2023-04-29T23:49:03.297Z,26.10
2023-04-29T23:51:36.492Z,26.10
2023-04-29T23:54:11.056Z,26.10
2023-04-29T23:56:44.446Z,26.10
2023-04-29T23:59:17.634Z,26.10
